aviador You're here:

KDVL Decoded Metar

DEVILS LAKE in ND, USA
Report Time2018-07-19 18:56:00
UTC Time2018-07-19 19:15:40
Flight Rules vfr VFR
Wind200° at 08 kt
W.Decomp.*RWY 21: 7.7 kt HW 2.3 kt LCW
RWY 13: 3.6 kt HW 7.1 kt RCW
W.Rank200° ranks 28
Current wind is below 200° avg. (8.8)
Visibility9999 m
Phenomena:N/A
Clouds:N/A
Expected CloudBase > 2,800 ft AGL from Temp-Dew spread
CeilingNone
Temp25°C (ISA +13)
Dew Point18°C (65% RH)
AAT24.9°C
QNH1010 hPa
Density Alt3,320 ft
Elevation1,453 ft
Report Wrong Elevation
Raw Report
KDVL 191856Z AUTO 20008KT 10SM CLR 25/18 A2983 RMK AO2 SLP108
T02500178 PNO $=

Extra information for KDVL:More info

Metar Taf Metar & Taf Last 4 Metars F.Rules Stats Wind Profile Meteogram Temp Stats Airport Information Weather charts Add Link Nearby VenuesMetar ALERT Operation Metar Decoded Social comments

AIRNAV info for KDVL